Time;durP1;ratioP1;P1;durP2;ratioP2;P2;SDS_P1;SDS_P2;PMS_P1;PMS_P2;Temp;Humidity;BMP_temperature;BMP_pressure;BME280_temperature;BME280_humidity;BME280_pressure;Samples;Min_cycle;Max_cycle;Signal;HPM_P1;HPM_P2
2022/04/13 00:00:37;;;;;;;24.58;14.50;;;205.10;2252.80;;;;;;4851378;29;20483;-86
2022/04/13 00:04:20;;;;;;;38.30;22.80;;;205.40;2252.80;;;;;;4856104;29;20125;-83
2022/04/13 00:07:18;;;;;;;41.05;24.65;;;205.30;2252.80;;;;;;4837347;29;20529;-83
2022/04/13 00:10:15;;;;;;;48.20;27.75;;;205.70;2252.80;;;;;;4842804;29;20042;-83
2022/04/13 00:12:47;;;;;;;34.88;20.17;;;205.60;2252.80;;;;;;4864182;29;20422;-83
2022/04/13 00:15:24;;;;;;;31.25;17.10;;;205.70;2252.80;;;;;;4867709;29;20099;-85
2022/04/13 00:18:02;;;;;;;25.40;12.77;;;205.70;2252.80;;;;;;4849419;29;20045;-85
2022/04/13 00:20:29;;;;;;;23.90;12.73;;;230.40;2252.80;;;;;;4835883;29;20545;-85
2022/04/13 00:23:06;;;;;;;25.38;16.05;;;230.40;2252.80;;;;;;4850424;29;20132;-86
2022/04/13 00:25:48;;;;;;;39.97;21.70;;;230.40;2252.80;;;;;;4847453;29;20129;-83
2022/04/13 00:28:18;;;;;;;39.75;21.90;;;230.40;2252.80;;;;;;4850622;29;20032;-84
2022/04/13 00:31:28;;;;;;;27.08;14.27;;;205.70;2252.80;;;;;;4862857;29;20117;-82
2022/04/13 00:34:24;;;;;;;26.30;14.98;;;205.70;2252.80;;;;;;4830049;29;20065;-86
2022/04/13 00:37:19;;;;;;;23.73;12.93;;;205.70;2252.80;;;;;;4831632;29;20522;-84
2022/04/13 00:39:57;;;;;;;25.08;13.30;;;205.70;2252.80;;;;;;4847479;29;20140;-86
2022/04/13 00:42:49;;;;;;;25.83;12.55;;;205.70;2252.80;;;;;;4849004;29;20081;-85
2022/04/13 00:45:36;;;;;;;24.77;13.45;;;205.70;2252.80;;;;;;4819152;29;20132;-85
2022/04/13 00:48:48;;;;;;;23.77;12.70;;;230.40;2252.80;;;;;;4848381;29;20030;-85
2022/04/13 00:51:58;;;;;;;25.60;12.25;;;230.50;2252.80;;;;;;4835883;29;20057;-86
2022/04/13 00:54:53;;;;;;;16.77;9.15;;;230.60;2252.80;;;;;;4850598;29;20033;-86
2022/04/13 00:58:01;;;;;;;22.67;14.45;;;230.70;2252.80;;;;;;4839125;29;20033;-86
2022/04/13 01:00:50;;;;;;;33.15;19.20;;;230.70;2252.80;;;;;;4850570;29;20058;-85
2022/04/13 01:03:56;;;;;;;30.55;18.35;;;205.70;2252.80;;;;;;4850315;29;20120;-85
2022/04/13 01:06:49;;;;;;;30.67;18.77;;;230.40;2252.80;;;;;;4850649;29;20037;-85
2022/04/13 01:09:43;;;;;;;;;;;205.30;2252.80;;;;;;4850889;29;20026;-85
2022/04/13 01:12:47;;;;;;;29.98;16.10;;;205.40;2252.80;;;;;;4828807;29;19937;-83
2022/04/13 01:15:35;;;;;;;28.88;17.13;;;205.50;2252.80;;;;;;4820264;29;20048;-86
2022/04/13 01:18:19;;;;;;;26.98;16.48;;;205.70;2252.80;;;;;;4819964;29;20129;-86
2022/04/13 01:21:19;;;;;;;33.55;19.55;;;230.40;2252.80;;;;;;4828916;29;20042;-84
2022/04/13 01:24:31;;;;;;;27.80;16.98;;;230.40;2252.80;;;;;;4792564;30;20042;-85
2022/04/13 01:27:34;;;;;;;25.08;16.10;;;230.40;2252.80;;;;;;4756858;30;20040;-84
2022/04/13 01:30:53;;;;;;;28.77;16.20;;;230.40;2252.80;;;;;;4753996;30;20040;-84
2022/04/13 01:34:13;;;;;;;23.48;13.77;;;230.50;2252.80;;;;;;4796836;29;20038;-82
2022/04/13 01:36:50;;;;;;;25.90;14.55;;;230.40;2252.80;;;;;;4758703;30;20040;-86
2022/04/13 01:39:36;;;;;;;25.55;15.25;;;205.70;2252.80;;;;;;4771501;30;20155;-86
2022/04/13 01:42:09;;;;;;;27.50;15.82;;;205.50;2252.80;;;;;;4773590;30;20054;-86
2022/04/13 01:44:41;;;;;;;33.50;21.92;;;205.40;2252.80;;;;;;4759652;30;20056;-84
2022/04/13 01:47:25;;;;;;;35.83;21.80;;;205.30;2252.80;;;;;;4756989;30;20051;-85
2022/04/13 01:49:59;;;;;;;36.00;20.58;;;204.90;2252.80;;;;;;4757048;30;20036;-85
2022/04/13 01:52:36;;;;;;;37.20;19.92;;;180.10;2252.80;;;;;;4781660;30;20040;-86
2022/04/13 01:55:24;;;;;;;37.58;19.85;;;180.00;2252.80;;;;;;4768870;30;20059;-86
2022/04/13 01:58:34;;;;;;;30.38;17.45;;;204.80;2252.80;;;;;;4777650;30;20065;-83
2022/04/13 02:02:13;;;;;;;27.77;17.40;;;205.10;2252.80;;;;;;4754694;30;20111;-84
2022/04/13 02:05:11;;;;;;;32.78;17.48;;;205.20;2252.80;;;;;;4716788;30;20451;-83
2022/04/13 02:08:30;;;;;;;26.67;17.10;;;205.10;2252.80;;;;;;4735451;30;20044;-86
2022/04/13 02:12:02;;;;;;;22.00;13.65;;;205.20;2252.80;;;;;;4686140;30;20046;-84
2022/04/13 02:15:04;;;;;;;21.75;14.07;;;205.10;2252.80;;;;;;4638371;30;20070;-85
2022/04/13 02:18:30;;;;;;;19.77;13.52;;;205.10;2252.80;;;;;;4648681;30;20046;-83
2022/04/13 02:22:12;;;;;;;22.15;13.23;;;205.00;2252.80;;;;;;4658328;30;20046;-87
2022/04/13 02:24:48;;;;;;;28.27;16.58;;;205.00;2252.80;;;;;;4639023;30;20054;-85
2022/04/13 02:27:24;;;;;;;27.25;15.90;;;204.80;2252.80;;;;;;4635561;30;20054;-86
2022/04/13 02:30:01;;;;;;;31.25;18.77;;;204.80;2252.80;;;;;;4636760;31;20538;-85
2022/04/13 02:32:36;;;;;;;38.10;18.48;;;180.10;2252.80;;;;;;4637116;30;20115;-85
2022/04/13 02:35:02;;;;;;;29.02;15.95;;;180.10;2252.80;;;;;;4668990;30;20404;-84
2022/04/13 02:37:32;;;;;;;26.23;14.23;;;180.00;2252.80;;;;;;4674219;30;20074;-86
2022/04/13 02:40:24;;;;;;;23.15;14.18;;;180.10;2252.80;;;;;;4688638;30;20034;-85
2022/04/13 02:43:17;;;;;;;26.98;16.23;;;204.80;2252.80;;;;;;4689041;30;20072;-85
2022/04/13 02:45:48;;;;;;;25.58;16.73;;;204.80;2252.80;;;;;;4672364;30;20054;-87
2022/04/13 02:48:20;;;;;;;26.63;16.40;;;180.10;2252.80;;;;;;4673945;30;20065;-83
2022/04/13 02:51:10;;;;;;;26.27;16.52;;;204.80;2252.80;;;;;;4690625;30;20110;-85
2022/04/13 02:53:37;;;;;;;26.10;15.75;;;180.10;2252.80;;;;;;4705083;30;20121;-84
2022/04/13 02:56:05;;;;;;;21.58;13.50;;;179.90;2252.80;;;;;;4706055;30;20037;-85
2022/04/13 02:58:35;;;;;;;20.85;12.60;;;179.90;2252.80;;;;;;4690650;30;20034;-85
2022/04/13 03:01:06;;;;;;;20.80;11.45;;;180.00;2252.80;;;;;;4711684;30;20037;-85
2022/04/13 03:03:37;;;;;;;17.48;11.00;;;180.10;2252.80;;;;;;4729674;30;20127;-83
2022/04/13 03:06:04;;;;;;;24.23;11.32;;;179.90;2252.80;;;;;;4761770;30;20063;-83
2022/04/13 03:08:35;;;;;;;17.38;11.77;;;179.70;2252.80;;;;;;4761103;30;20521;-84
2022/04/13 03:11:01;;;;;;;24.77;14.25;;;179.80;2252.80;;;;;;4783129;29;20030;-83
2022/04/13 03:13:27;;;;;;;19.25;12.18;;;179.50;2252.80;;;;;;4847472;29;20130;-84
2022/04/13 03:15:54;;;;;;;21.48;13.75;;;179.30;2252.80;;;;;;4833285;29;20398;-83
2022/04/13 03:18:22;;;;;;;30.10;16.63;;;179.30;2252.80;;;;;;4849972;29;20030;-84
2022/04/13 03:20:49;;;;;;;26.13;16.27;;;154.50;2252.80;;;;;;4859532;29;20026;-81
2022/04/13 03:23:15;;;;;;;30.95;20.55;;;179.20;2252.80;;;;;;4839546;29;20045;-84
2022/04/13 03:25:41;;;;;;;21.08;13.27;;;179.40;2252.80;;;;;;4833425;29;20032;-85
2022/04/13 03:28:11;;;;;;;21.75;12.35;;;179.50;2252.80;;;;;;4850312;29;20033;-85
2022/04/13 03:30:54;;;;;;;22.20;12.68;;;154.50;2252.80;;;;;;4848517;29;20034;-84
2022/04/13 03:33:26;;;;;;;21.40;14.60;;;179.40;2252.80;;;;;;4850255;29;20383;-83
2022/04/13 03:35:56;;;;;;;25.83;16.52;;;179.40;2252.80;;;;;;4848923;29;20030;-86
2022/04/13 03:38:24;;;;;;;31.42;18.63;;;179.50;2252.80;;;;;;4847891;29;20042;-83
2022/04/13 03:40:57;;;;;;;29.63;18.40;;;179.60;2252.80;;;;;;4847985;29;20030;-84
2022/04/13 03:43:27;;;;;;;48.10;22.20;;;179.70;2252.80;;;;;;4847308;29;20070;-84
2022/04/13 03:45:53;;;;;;;120.72;54.83;;;179.60;2252.80;;;;;;4844286;29;20061;-84
2022/04/13 03:48:24;;;;;;;95.07;44.50;;;179.60;2252.80;;;;;;4867963;29;20449;-87
2022/04/13 03:50:53;;;;;;;41.05;23.20;;;179.50;2252.80;;;;;;4851586;29;20026;-83
2022/04/13 03:53:21;;;;;;;44.00;26.67;;;179.50;2252.80;;;;;;4851460;29;20055;-84
2022/04/13 03:55:47;;;;;;;54.10;28.58;;;179.60;2252.80;;;;;;4821535;29;20486;-86
2022/04/13 03:58:13;;;;;;;46.45;23.75;;;179.70;2252.80;;;;;;4851471;29;20025;-84
2022/04/13 04:00:43;;;;;;;47.30;24.48;;;179.70;2252.80;;;;;;4851895;29;20109;-84
2022/04/13 04:03:10;;;;;;;42.30;20.35;;;179.40;2252.80;;;;;;4851286;29;20171;-83
2022/04/13 04:05:37;;;;;;;28.90;16.13;;;179.40;2252.80;;;;;;4851719;29;20033;-84
2022/04/13 04:08:07;;;;;;;27.65;15.23;;;179.40;2252.80;;;;;;4851881;29;20022;-85
2022/04/13 04:10:38;;;;;;;34.35;15.00;;;179.40;2252.80;;;;;;4851432;29;20057;-84
2022/04/13 04:13:06;;;;;;;19.88;12.23;;;179.40;2252.80;;;;;;4868496;29;20032;-84
2022/04/13 04:15:34;;;;;;;26.73;17.58;;;179.70;2252.80;;;;;;4835968;29;20120;-82
2022/04/13 04:18:01;;;;;;;31.83;20.35;;;179.40;2252.80;;;;;;4868047;29;20030;-84
2022/04/13 04:20:39;;;;;;;24.23;17.25;;;179.30;2252.80;;;;;;4835944;29;20147;-84
2022/04/13 04:23:07;;;;;;;25.77;14.63;;;179.90;2252.80;;;;;;4851119;29;20067;-83
2022/04/13 04:25:34;;;;;;;22.58;15.10;;;179.60;2252.80;;;;;;4850706;29;20029;-85
2022/04/13 04:28:03;;;;;;;24.20;14.15;;;179.60;2252.80;;;;;;4850878;29;20025;-86
2022/04/13 04:30:31;;;;;;;37.72;22.10;;;179.70;2252.80;;;;;;4850139;29;20040;-83
2022/04/13 04:33:02;;;;;;;36.63;23.83;;;179.60;2252.80;;;;;;4851214;29;20482;-85
2022/04/13 04:35:29;;;;;;;33.10;21.75;;;179.70;2252.80;;;;;;4851252;29;20116;-84
2022/04/13 04:37:56;;;;;;;44.40;28.33;;;179.70;2252.80;;;;;;4850737;29;20053;-84
2022/04/13 04:40:27;;;;;;;49.03;29.95;;;179.40;2252.80;;;;;;4850451;29;20070;-83
2022/04/13 04:42:54;;;;;;;46.25;27.58;;;179.30;2252.80;;;;;;4851512;29;20056;-83
2022/04/13 04:45:27;;;;;;;35.90;21.25;;;154.50;2252.80;;;;;;4852360;29;20080;-84
2022/04/13 04:47:56;;;;;;;37.38;21.42;;;154.50;2252.80;;;;;;4852783;29;20021;-85
2022/04/13 04:50:26;;;;;;;32.28;20.42;;;154.50;2252.80;;;;;;4837876;29;20497;-85
2022/04/13 04:52:58;;;;;;;35.63;22.38;;;179.20;2252.80;;;;;;4851958;29;20095;-85
2022/04/13 04:55:26;;;;;;;33.55;23.27;;;179.40;2252.80;;;;;;4869918;29;20029;-83
2022/04/13 04:57:52;;;;;;;41.20;27.23;;;179.40;2252.80;;;;;;4848482;29;20030;-86
2022/04/13 05:00:22;;;;;;;41.90;27.75;;;179.50;2252.80;;;;;;4851331;29;20029;-84
2022/04/13 05:03:28;;;;;;;53.75;32.60;;;179.70;2252.80;;;;;;4855268;29;20025;-83
2022/04/13 05:05:54;;;;;;;47.53;32.95;;;179.80;2252.80;;;;;;4854098;29;20081;-84
2022/04/13 05:08:22;;;;;;;39.97;23.88;;;179.90;2252.80;;;;;;4850331;29;20026;-85
2022/04/13 05:10:58;;;;;;;39.40;21.05;;;179.70;2252.80;;;;;;4851124;29;20026;-84
2022/04/13 05:13:29;;;;;;;36.22;20.98;;;179.50;2252.80;;;;;;4868313;29;20104;-84
2022/04/13 05:15:55;;;;;;;61.28;38.05;;;154.50;2252.80;;;;;;4837656;29;20062;-84
2022/04/13 05:18:21;;;;;;;45.95;28.95;;;154.10;2252.80;;;;;;4852265;29;20038;-83
2022/04/13 05:20:48;;;;;;;49.00;28.27;;;154.50;2252.80;;;;;;4853365;29;20032;-84
2022/04/13 05:23:29;;;;;;;40.90;23.75;;;179.40;2252.80;;;;;;4854366;29;20033;-83
2022/04/13 05:25:57;;;;;;;43.30;25.30;;;179.40;2252.80;;;;;;4870412;29;20064;-86
2022/04/13 05:28:27;;;;;;;40.50;22.80;;;179.40;2252.80;;;;;;4851613;29;20032;-85
2022/04/13 05:30:56;;;;;;;50.08;28.35;;;179.70;2252.80;;;;;;4846255;29;20029;-85
2022/04/13 05:33:23;;;;;;;30.52;18.13;;;179.70;2252.80;;;;;;4850087;29;20041;-84
2022/04/13 05:35:51;;;;;;;34.20;16.73;;;179.80;2252.80;;;;;;4835520;29;20048;-85
2022/04/13 05:38:21;;;;;;;27.27;16.05;;;180.10;2252.80;;;;;;4836485;29;20029;-84
2022/04/13 05:40:48;;;;;;;29.05;17.50;;;179.90;2252.80;;;;;;4851427;29;20093;-83
2022/04/13 05:43:17;;;;;;;61.80;34.63;;;179.90;2252.80;;;;;;4850711;29;20064;-84
2022/04/13 05:45:46;;;;;;;49.95;26.73;;;179.80;2252.80;;;;;;4850439;29;20056;-85
2022/04/13 05:48:34;;;;;;;64.70;40.05;;;180.10;2252.80;;;;;;4849910;29;20037;-84
2022/04/13 05:51:01;;;;;;;38.97;24.50;;;180.10;2252.80;;;;;;4851295;29;20095;-84
2022/04/13 05:53:32;;;;;;;43.58;26.60;;;180.10;2252.80;;;;;;4853251;29;20034;-84
2022/04/13 05:56:04;;;;;;;65.82;41.45;;;204.80;2252.80;;;;;;4856873;29;20054;-84
2022/04/13 05:58:39;;;;;;;57.58;36.20;;;204.90;2252.80;;;;;;4855820;29;20034;-86
2022/04/13 06:01:06;;;;;;;30.85;20.45;;;205.60;2252.80;;;;;;4854870;29;20446;-86
2022/04/13 06:03:45;;;;;;;35.03;23.27;;;204.80;2252.80;;;;;;4855406;29;20072;-84
2022/04/13 06:06:25;;;;;;;31.55;19.83;;;205.00;2252.80;;;;;;4853311;29;20033;-85
2022/04/13 06:09:08;;;;;;;43.03;27.77;;;204.80;2252.80;;;;;;4851813;29;20025;-84
2022/04/13 06:11:34;;;;;;;43.28;27.90;;;204.90;2252.80;;;;;;4854774;29;20029;-87
2022/04/13 06:14:07;;;;;;;50.63;33.47;;;205.00;2252.80;;;;;;4856100;29;20086;-85
2022/04/13 06:16:44;;;;;;;53.60;32.60;;;205.00;2252.80;;;;;;4855011;29;20022;-85
2022/04/13 06:19:16;;;;;;;47.67;30.45;;;205.20;2252.80;;;;;;4873715;29;20025;-86
2022/04/13 06:21:48;;;;;;;162.02;82.63;;;205.30;2252.80;;;;;;4839564;29;20029;-85
2022/04/13 06:24:22;;;;;;;71.15;43.45;;;205.40;2252.80;;;;;;4870056;29;20029;-86
2022/04/13 06:31:48;;;;;;;25.80;18.00;;;205.70;2252.80;;;;;;4790640;30;20080;-86
2022/04/13 07:03:46;;;;;;;13.95;10.07;;;256.50;2252.80;;;;;;4736593;30;20687;-84
2022/04/13 07:06:30;;;;;;;14.57;10.27;;;256.80;2252.80;;;;;;4737867;30;20041;-84
2022/04/13 07:10:07;;;;;;;19.17;11.23;;;256.90;2252.80;;;;;;4735460;30;20053;-85
2022/04/13 07:13:21;;;;;;;24.90;14.35;;;281.70;2278.40;;;;;;4715684;30;20049;-84
2022/04/13 07:15:58;;;;;;;14.20;9.05;;;282.10;2278.40;;;;;;4697506;30;20137;-85
2022/04/13 07:18:37;;;;;;;15.45;8.88;;;282.20;2278.40;;;;;;4717128;30;20169;-83
2022/04/13 07:34:54;;;;;;;10.35;6.90;;;307.50;2304.00;;;;;;4806320;29;20024;-85
2022/04/13 07:38:02;;;;;;;15.50;7.70;;;307.60;2278.40;;;;;;4843549;29;20025;-86
2022/04/13 07:40:31;;;;;;;11.63;7.35;;;307.70;2304.00;;;;;;4827421;29;20034;-85
2022/04/13 08:01:27;;;;;;;12.38;7.97;;;333.40;2278.40;;;;;;4844417;29;20120;-84
2022/04/13 08:04:07;;;;;;;16.60;9.25;;;333.40;2252.80;;;;;;4849150;29;20048;-85
2022/04/13 08:24:20;;;;;;;11.65;8.35;;;358.80;2176.00;;;;;;4734299;30;20122;-86
2022/04/13 08:36:46;;;;;;;11.60;7.45;;;359.30;2048.00;;;;;;4741449;30;20513;-86
2022/04/13 08:39:31;;;;;;;11.50;7.20;;;384.00;2022.40;;;;;;4846951;29;20059;-86
2022/04/13 08:42:44;;;;;;;12.90;6.93;;;384.00;1971.20;;;;;;4844996;29;20432;-83
2022/04/13 08:45:48;;;;;;;12.20;7.78;;;384.10;1971.20;;;;;;4839838;29;20089;-82
2022/04/13 08:52:40;;;;;;;13.45;8.77;;;384.70;1971.20;;;;;;4824849;29;20045;-85
2022/04/13 09:02:56;;;;;;;17.10;8.00;;;409.80;1945.60;;;;;;4823136;29;20046;-84
2022/04/13 09:09:49;;;;;;;14.63;8.85;;;409.80;1920.00;;;;;;4823612;29;20112;-85
2022/04/13 09:16:19;;;;;;;15.40;9.77;;;409.70;1894.40;;;;;;4832168;29;20081;-84
2022/04/13 09:22:14;;;;;;;15.38;8.57;;;410.50;1868.80;;;;;;4841364;29;20121;-89
2022/04/13 09:27:37;;;;;;;15.40;8.45;;;435.30;1817.60;;;;;;4819079;29;20087;-87
2022/04/13 09:30:16;;;;;;;13.68;7.00;;;435.50;1792.00;;;;;;4861806;29;20040;-87
2022/04/13 09:32:44;;;;;;;17.77;11.10;;;435.60;1766.40;;;;;;4847054;29;20041;-88
2022/04/13 09:38:59;;;;;;;13.55;7.80;;;436.10;1766.40;;;;;;4756741;30;20078;-89
2022/04/13 09:41:39;;;;;;;13.13;6.45;;;460.80;1766.40;;;;;;4757347;30;20085;-87
2022/04/13 09:44:16;;;;;;;12.95;8.73;;;460.80;1740.80;;;;;;4757300;30;20063;-86
2022/04/13 09:46:48;;;;;;;15.05;7.50;;;460.90;1740.80;;;;;;4791276;29;20042;-88
2022/04/13 09:52:57;;;;;;;12.63;7.28;;;461.20;1715.20;;;;;;4846917;29;20029;-84
2022/04/13 09:56:10;;;;;;;9.65;6.22;;;461.10;1664.00;;;;;;4833426;29;20038;-86
2022/04/13 10:12:20;;;;;;;11.43;6.28;;;486.40;1612.80;;;;;;4801112;29;20077;-84
2022/04/13 10:14:46;;;;;;;14.32;7.32;;;486.50;1612.80;;;;;;4833377;29;20034;-83
2022/04/13 10:20:03;;;;;;;10.52;5.90;;;486.80;1587.20;;;;;;4848455;29;20045;-82
2022/04/13 10:22:29;;;;;;;11.40;6.18;;;486.50;1587.20;;;;;;4847629;29;20490;-84
2022/04/13 10:24:55;;;;;;;11.95;7.32;;;486.90;1561.60;;;;;;4845344;29;20042;-82
2022/04/13 10:27:25;;;;;;;8.93;5.90;;;512.20;1536.00;;;;;;4847476;29;20103;-84
2022/04/13 10:29:51;;;;;;;8.20;6.10;;;512.60;1536.00;;;;;;4847124;29;20034;-83
2022/04/13 10:32:27;;;;;;;13.40;6.57;;;512.80;1536.00;;;;;;4847673;29;20030;-84
2022/04/13 10:35:04;;;;;;;13.52;6.13;;;512.80;1510.40;;;;;;4846909;29;20033;-82
2022/04/13 10:37:30;;;;;;;12.75;6.35;;;537.60;1561.60;;;;;;4848116;29;20121;-83
2022/04/13 10:40:00;;;;;;;9.13;5.90;;;537.80;1536.00;;;;;;4865872;29;20018;-85
2022/04/13 10:46:17;;;;;;;22.10;13.40;;;538.30;1484.80;;;;;;4847706;29;20041;-85
2022/04/13 10:48:53;;;;;;;10.68;8.00;;;538.50;1484.80;;;;;;4844587;29;20041;-87
2022/04/13 10:52:05;;;;;;;10.57;5.75;;;563.20;1484.80;;;;;;4844769;29;20065;-82
2022/04/13 10:55:17;;;;;;;14.25;7.15;;;538.10;1433.60;;;;;;4844155;29;20037;-79
2022/04/13 11:31:05;;;;;;;9.45;5.85;;;564.10;1408.00;;;;;;4843330;29;20042;-83
2022/04/13 12:52:55;;;;;;;6.72;4.13;;;666.10;1203.20;;;;;;4858008;29;20231;-82
2022/04/13 12:55:21;;;;;;;6.75;4.32;;;665.90;1203.20;;;;;;4844233;29;20033;-82
2022/04/13 12:57:46;;;;;;;7.75;4.10;;;665.70;1177.60;;;;;;4845377;29;20089;-83
2022/04/13 13:00:33;;;;;;;11.68;5.18;;;640.60;1152.00;;;;;;4845009;29;20029;-81
2022/04/13 13:02:58;;;;;;;7.10;3.92;;;640.60;1177.60;;;;;;4844307;29;20089;-81
2022/04/13 13:05:24;;;;;;;9.73;4.72;;;640.30;1152.00;;;;;;4844751;29;20041;-81
2022/04/13 13:07:50;;;;;;;7.47;4.25;;;665.60;1228.80;;;;;;4844745;29;20071;-81
2022/04/13 13:10:16;;;;;;;10.23;4.38;;;665.60;1203.20;;;;;;4845122;29;20030;-80
2022/04/13 13:12:41;;;;;;;6.97;3.75;;;665.70;1177.60;;;;;;4845159;29;20032;-81
2022/04/13 13:15:07;;;;;;;8.43;4.70;;;640.80;1126.40;;;;;;4844674;29;20045;-81
2022/04/13 13:17:42;;;;;;;10.98;5.13;;;665.80;1177.60;;;;;;4844912;29;20055;-81
2022/04/13 13:20:13;;;;;;;7.07;4.22;;;666.20;1203.20;;;;;;4844974;29;20085;-80
2022/04/13 13:22:51;;;;;;;8.00;4.35;;;666.10;1177.60;;;;;;4858675;29;20381;-81
2022/04/13 13:28:58;;;;;;;10.55;3.97;;;666.10;1203.20;;;;;;4842159;29;20486;-80
2022/04/13 13:31:24;;;;;;;5.38;3.67;;;665.90;1152.00;;;;;;4862896;29;20050;-81
2022/04/13 13:33:54;;;;;;;8.52;4.35;;;665.70;1126.40;;;;;;4863120;29;20036;-81
2022/04/13 13:36:20;;;;;;;6.82;4.07;;;666.20;1126.40;;;;;;4863035;29;20052;-80
2022/04/13 13:38:49;;;;;;;6.38;3.92;;;665.90;1126.40;;;;;;4853636;29;20064;-82
2022/04/13 13:41:15;;;;;;;9.48;4.78;;;666.30;1152.00;;;;;;4844583;29;20038;-80
2022/04/13 13:43:41;;;;;;;9.30;4.90;;;666.00;1126.40;;;;;;4844636;29;20431;-81
2022/04/13 13:46:22;;;;;;;14.23;7.15;;;666.30;1152.00;;;;;;4844722;29;20134;-81
2022/04/13 13:48:49;;;;;;;8.48;5.25;;;666.50;1152.00;;;;;;4844686;29;20041;-80
2022/04/13 13:51:16;;;;;;;10.02;4.65;;;666.30;1100.80;;;;;;4844375;29;20033;-80
2022/04/13 13:53:42;;;;;;;8.90;3.95;;;640.90;1075.20;;;;;;4844089;29;20073;-81
2022/04/13 13:56:09;;;;;;;7.07;4.20;;;640.20;1100.80;;;;;;4844428;29;20045;-80
2022/04/13 14:19:55;;;;;;;;;;;;;;;;;;;;;
2022/04/13 14:36:47;;;;;;;;;;;;;;;;;;;;;
2022/04/13 14:39:52;;;;;;;11.68;6.05;;;666.20;1075.20;;;;;;4811663;29;20047;-82
2022/04/13 14:42:17;;;;;;;6.93;4.38;;;666.10;1075.20;;;;;;4833130;29;20067;-78
2022/04/13 14:44:43;;;;;;;8.07;4.70;;;666.10;1075.20;;;;;;4843817;29;20034;-77
2022/04/13 14:47:11;;;;;;;10.43;5.18;;;666.10;1075.20;;;;;;4843647;29;20498;-80
2022/04/13 14:49:39;;;;;;;7.47;5.35;;;666.20;1100.80;;;;;;4844108;29;20034;-79
2022/04/13 14:52:05;;;;;;;9.88;5.20;;;666.50;1100.80;;;;;;4844063;29;20041;-79
2022/04/13 14:54:31;;;;;;;6.72;4.25;;;691.20;1100.80;;;;;;4843932;29;20103;-81
2022/04/13 14:56:57;;;;;;;10.32;6.30;;;691.20;1075.20;;;;;;4844086;29;20030;-79
2022/04/13 14:59:26;;;;;;;8.75;4.80;;;666.50;1075.20;;;;;;4845387;29;20078;-83
2022/04/13 15:01:52;;;;;;;9.50;4.95;;;666.20;1075.20;;;;;;4843931;29;20090;-80
2022/04/13 15:04:18;;;;;;;9.18;4.95;;;666.10;1075.20;;;;;;4844050;29;20034;-81
2022/04/13 15:06:44;;;;;;;8.93;5.70;;;666.30;1100.80;;;;;;4843231;29;20069;-81
2022/04/13 15:09:10;;;;;;;11.52;7.88;;;666.30;1100.80;;;;;;4843857;29;20038;-81
2022/04/13 15:11:36;;;;;;;15.48;7.38;;;666.20;1100.80;;;;;;4843855;29;20117;-80
2022/04/13 15:14:06;;;;;;;16.45;13.65;;;666.20;1100.80;;;;;;4843498;29;20033;-80
2022/04/13 15:16:34;;;;;;;19.77;12.13;;;666.20;1075.20;;;;;;4843649;29;20033;-81
2022/04/13 15:19:06;;;;;;;16.15;10.43;;;665.90;1100.80;;;;;;4843623;29;20468;-81
2022/04/13 15:21:35;;;;;;;21.00;14.07;;;665.90;1100.80;;;;;;4843474;29;20112;-80
2022/04/13 15:24:01;;;;;;;14.80;9.18;;;665.80;1100.80;;;;;;4843512;29;20038;-81
2022/04/13 15:26:29;;;;;;;16.67;11.70;;;665.80;1100.80;;;;;;4842897;29;20041;-81
2022/04/13 15:28:57;;;;;;;14.80;10.57;;;665.70;1100.80;;;;;;4843152;29;20454;-80
2022/04/13 15:31:23;;;;;;;10.85;8.50;;;666.20;1126.40;;;;;;4843489;29;20111;-81
2022/04/13 15:33:48;;;;;;;15.93;8.70;;;640.90;1100.80;;;;;;4843240;29;20076;-79
2022/04/13 15:36:15;;;;;;;12.23;7.82;;;640.50;1100.80;;;;;;4842835;29;20030;-80
2022/04/13 15:38:41;;;;;;;16.42;10.40;;;640.50;1126.40;;;;;;4843151;29;20026;-81
2022/04/13 15:41:07;;;;;;;13.85;9.55;;;640.20;1100.80;;;;;;4843276;29;20471;-80
2022/04/13 15:43:33;;;;;;;17.50;13.18;;;640.20;1126.40;;;;;;4842842;29;20386;-80
2022/04/13 15:46:00;;;;;;;11.45;9.10;;;615.20;1100.80;;;;;;4842646;29;20034;-80
2022/04/13 15:48:25;;;;;;;14.48;9.30;;;615.00;1126.40;;;;;;4842841;29;20433;-79
2022/04/13 15:50:59;;;;;;;13.13;10.20;;;614.80;1126.40;;;;;;4844473;29;20034;-79
2022/04/13 15:53:27;;;;;;;30.40;22.13;;;614.40;1152.00;;;;;;4842599;29;20052;-79
2022/04/13 15:55:54;;;;;;;20.92;13.40;;;589.20;1177.60;;;;;;4842400;29;20034;-80
2022/04/13 15:58:20;;;;;;;16.73;11.82;;;588.90;1177.60;;;;;;4843006;29;20026;-80
2022/04/13 16:00:45;;;;;;;15.07;11.30;;;564.00;1177.60;;;;;;4842975;29;20026;-79
2022/04/13 16:03:11;;;;;;;16.10;9.85;;;563.80;1203.20;;;;;;4842647;29;20076;-78
2022/04/13 16:05:44;;;;;;;13.88;8.43;;;563.60;1203.20;;;;;;4841989;29;20064;-79
2022/04/13 16:08:20;;;;;;;15.77;10.68;;;563.30;1228.80;;;;;;4849994;29;20029;-79
2022/04/13 16:10:49;;;;;;;16.15;11.50;;;538.50;1228.80;;;;;;4860768;29;20034;-78
2022/04/13 16:13:14;;;;;;;13.70;10.20;;;538.50;1203.20;;;;;;4857602;29;20050;-78
2022/04/13 16:15:48;;;;;;;19.88;11.05;;;538.30;1228.80;;;;;;4860911;29;20041;-80
2022/04/13 16:18:20;;;;;;;17.30;11.25;;;538.00;1228.80;;;;;;4860834;29;20025;-79
2022/04/13 16:20:46;;;;;;;19.00;10.05;;;537.90;1228.80;;;;;;4860954;29;20025;-78
2022/04/13 16:23:16;;;;;;;15.48;9.27;;;537.70;1228.80;;;;;;4860565;29;20044;-79
2022/04/13 16:25:43;;;;;;;15.43;9.27;;;537.60;1228.80;;;;;;4861638;29;20033;-80
2022/04/13 16:28:09;;;;;;;19.25;12.77;;;537.60;1254.40;;;;;;4860724;29;20065;-79
2022/04/13 16:30:36;;;;;;;15.73;9.65;;;512.70;1254.40;;;;;;4860430;29;20531;-79
2022/04/13 16:33:04;;;;;;;18.58;8.77;;;512.80;1228.80;;;;;;4850530;29;20085;-77
2022/04/13 16:38:20;;;;;;;19.45;9.15;;;512.50;1228.80;;;;;;4842045;29;20038;-80
2022/04/13 16:40:46;;;;;;;14.52;9.70;;;512.40;1254.40;;;;;;4841382;29;20030;-79
2022/04/13 16:43:12;;;;;;;14.40;8.48;;;512.20;1254.40;;;;;;4840921;29;20034;-78
2022/04/13 16:46:30;;;;;;;18.95;10.48;;;512.10;1254.40;;;;;;4841860;29;20089;-82
2022/04/13 16:49:10;;;;;;;17.17;10.85;;;512.00;1254.40;;;;;;4841452;29;20033;-79
2022/04/13 16:54:58;;;;;;;19.23;12.35;;;487.10;1280.00;;;;;;4843175;29;20089;-82
2022/04/13 16:57:33;;;;;;;26.27;15.25;;;487.00;1280.00;;;;;;4841977;29;20090;-81
2022/04/13 17:00:26;;;;;;;25.95;17.42;;;487.00;1280.00;;;;;;4841241;29;20037;-80
2022/04/13 17:03:09;;;;;;;27.13;16.20;;;486.80;1280.00;;;;;;4815995;29;20050;-80
2022/04/13 17:09:32;;;;;;;30.35;19.67;;;486.80;1280.00;;;;;;4715723;30;20052;-78
2022/04/13 17:12:34;;;;;;;36.53;20.52;;;486.70;1280.00;;;;;;4701303;30;20037;-82
2022/04/13 17:15:28;;;;;;;42.27;25.20;;;486.50;1280.00;;;;;;4715765;30;20041;-84
2022/04/13 17:18:00;;;;;;;36.80;25.20;;;486.50;1280.00;;;;;;4700978;30;20033;-81
2022/04/13 17:20:26;;;;;;;45.05;18.85;;;486.50;1280.00;;;;;;4771188;29;20038;-84
2022/04/13 17:22:55;;;;;;;24.73;17.63;;;461.70;1280.00;;;;;;4826645;29;20086;-83
2022/04/13 17:25:21;;;;;;;26.25;18.75;;;461.70;1280.00;;;;;;4826623;29;20364;-80
2022/04/13 17:27:47;;;;;;;24.48;18.30;;;461.60;1280.00;;;;;;4826340;29;20090;-79
2022/04/13 17:30:12;;;;;;;27.33;19.90;;;461.60;1305.60;;;;;;4826686;29;20026;-79
2022/04/13 17:32:38;;;;;;;19.50;12.50;;;461.50;1305.60;;;;;;4825403;29;20078;-81
2022/04/13 17:35:05;;;;;;;22.85;13.93;;;461.50;1280.00;;;;;;4842176;29;20038;-81
2022/04/13 17:37:30;;;;;;;20.45;13.38;;;461.40;1280.00;;;;;;4826726;29;20117;-80
2022/04/13 17:39:56;;;;;;;28.88;17.33;;;461.40;1305.60;;;;;;4826841;29;20129;-81
2022/04/13 17:42:22;;;;;;;23.88;14.65;;;461.40;1305.60;;;;;;4827219;29;20124;-80
2022/04/13 17:44:48;;;;;;;23.17;16.80;;;461.40;1331.20;;;;;;4825612;29;20041;-81
2022/04/13 17:47:17;;;;;;;27.17;18.00;;;461.40;1305.60;;;;;;4826090;29;20033;-79
2022/04/13 17:49:43;;;;;;;33.95;19.20;;;461.30;1305.60;;;;;;4826789;29;20454;-80
2022/04/13 17:52:09;;;;;;;44.80;29.55;;;461.20;1305.60;;;;;;4829899;29;20030;-80
2022/04/13 17:54:34;;;;;;;32.92;25.00;;;461.10;1331.20;;;;;;4846113;29;20029;-83
2022/04/13 17:57:00;;;;;;;37.17;27.58;;;460.90;1382.40;;;;;;4846178;29;20034;-80
2022/04/13 17:59:26;;;;;;;48.22;32.45;;;460.90;1382.40;;;;;;4829542;29;20026;-82